sensor_id;sensor_type;location;lat;lon;timestamp;temperature;humidity
34137;DHT22;20414;50.860;4.382;2022-10-30T00:01:59;20.00;67.00
34137;DHT22;20414;50.860;4.382;2022-10-30T00:04:24;20.00;67.10
34137;DHT22;20414;50.860;4.382;2022-10-30T00:06:50;20.00;67.10
34137;DHT22;20414;50.860;4.382;2022-10-30T00:09:16;20.00;67.10
34137;DHT22;20414;50.860;4.382;2022-10-30T00:11:41;20.00;67.10
34137;DHT22;20414;50.860;4.382;2022-10-30T00:14:07;20.00;67.00
34137;DHT22;20414;50.860;4.382;2022-10-30T00:16:33;20.00;67.10
34137;DHT22;20414;50.860;4.382;2022-10-30T00:18:59;20.00;67.10
34137;DHT22;20414;50.860;4.382;2022-10-30T00:21:24;20.00;67.00
34137;DHT22;20414;50.860;4.382;2022-10-30T00:23:52;20.00;67.10
34137;DHT22;20414;50.860;4.382;2022-10-30T00:26:19;20.10;67.10
34137;DHT22;20414;50.860;4.382;2022-10-30T00:28:52;20.00;67.10
34137;DHT22;20414;50.860;4.382;2022-10-30T00:31:19;20.00;67.10
34137;DHT22;20414;50.860;4.382;2022-10-30T00:33:49;20.00;67.10
34137;DHT22;20414;50.860;4.382;2022-10-30T00:36:15;20.00;67.10
34137;DHT22;20414;50.860;4.382;2022-10-30T00:38:40;20.00;67.10
34137;DHT22;20414;50.860;4.382;2022-10-30T00:41:06;20.00;67.10
34137;DHT22;20414;50.860;4.382;2022-10-30T00:43:36;20.00;67.10
34137;DHT22;20414;50.860;4.382;2022-10-30T00:46:15;20.00;67.10
34137;DHT22;20414;50.860;4.382;2022-10-30T00:48:43;20.00;67.10
34137;DHT22;20414;50.860;4.382;2022-10-30T00:51:10;20.00;67.10
34137;DHT22;20414;50.860;4.382;2022-10-30T00:53:37;20.00;67.10
34137;DHT22;20414;50.860;4.382;2022-10-30T00:56:05;20.00;67.20
34137;DHT22;20414;50.860;4.382;2022-10-30T00:58:36;20.00;67.20
34137;DHT22;20414;50.860;4.382;2022-10-30T01:01:05;20.00;67.10
34137;DHT22;20414;50.860;4.382;2022-10-30T01:03:33;20.00;67.20
34137;DHT22;20414;50.860;4.382;2022-10-30T01:06:03;20.00;67.10
34137;DHT22;20414;50.860;4.382;2022-10-30T01:08:29;20.00;67.10
34137;DHT22;20414;50.860;4.382;2022-10-30T01:10:57;20.00;67.20
34137;DHT22;20414;50.860;4.382;2022-10-30T01:13:23;20.00;67.20
34137;DHT22;20414;50.860;4.382;2022-10-30T01:16:12;20.00;67.20
34137;DHT22;20414;50.860;4.382;2022-10-30T01:19:02;20.00;67.20
34137;DHT22;20414;50.860;4.382;2022-10-30T01:21:44;20.00;67.20
34137;DHT22;20414;50.860;4.382;2022-10-30T01:26:51;20.00;67.20
34137;DHT22;20414;50.860;4.382;2022-10-30T01:35:04;20.00;67.30
34137;DHT22;20414;50.860;4.382;2022-10-30T01:40:18;20.00;67.30
34137;DHT22;20414;50.860;4.382;2022-10-30T01:42:57;20.00;67.30
34137;DHT22;20414;50.860;4.382;2022-10-30T01:45:30;20.00;67.30
34137;DHT22;20414;50.860;4.382;2022-10-30T01:50:53;20.00;67.30
34137;DHT22;20414;50.860;4.382;2022-10-30T02:01:16;20.00;67.40
34137;DHT22;20414;50.860;4.382;2022-10-30T02:03:43;20.00;68.10
34137;DHT22;20414;50.860;4.382;2022-10-30T02:06:09;20.00;67.30
34137;DHT22;20414;50.860;4.382;2022-10-30T02:08:35;20.00;67.30
34137;DHT22;20414;50.860;4.382;2022-10-30T02:11:00;20.00;67.40
34137;DHT22;20414;50.860;4.382;2022-10-30T02:13:27;20.00;67.40
34137;DHT22;20414;50.860;4.382;2022-10-30T02:15:52;20.00;67.40
34137;DHT22;20414;50.860;4.382;2022-10-30T02:18:18;20.00;67.30
34137;DHT22;20414;50.860;4.382;2022-10-30T02:20:44;20.00;67.40
34137;DHT22;20414;50.860;4.382;2022-10-30T02:23:09;20.00;67.30
34137;DHT22;20414;50.860;4.382;2022-10-30T02:25:41;20.00;67.40
34137;DHT22;20414;50.860;4.382;2022-10-30T02:28:06;20.00;67.40
34137;DHT22;20414;50.860;4.382;2022-10-30T02:30:32;20.00;68.10
34137;DHT22;20414;50.860;4.382;2022-10-30T02:32:58;20.00;67.40
34137;DHT22;20414;50.860;4.382;2022-10-30T02:35:23;20.00;67.40
34137;DHT22;20414;50.860;4.382;2022-10-30T02:37:49;20.00;67.40
34137;DHT22;20414;50.860;4.382;2022-10-30T02:40:15;20.00;67.40
34137;DHT22;20414;50.860;4.382;2022-10-30T02:42:40;20.00;67.40
34137;DHT22;20414;50.860;4.382;2022-10-30T02:45:06;20.00;67.40
34137;DHT22;20414;50.860;4.382;2022-10-30T02:47:32;20.00;67.40
34137;DHT22;20414;50.860;4.382;2022-10-30T02:49:58;20.00;67.40
34137;DHT22;20414;50.860;4.382;2022-10-30T02:52:24;20.00;67.50
34137;DHT22;20414;50.860;4.382;2022-10-30T02:54:49;20.00;67.50
34137;DHT22;20414;50.860;4.382;2022-10-30T02:57:15;20.00;67.50
34137;DHT22;20414;50.860;4.382;2022-10-30T02:59:41;20.00;67.50
34137;DHT22;20414;50.860;4.382;2022-10-30T03:02:06;20.00;67.50
34137;DHT22;20414;50.860;4.382;2022-10-30T03:04:32;20.00;67.50
34137;DHT22;20414;50.860;4.382;2022-10-30T03:06:57;20.00;67.50
34137;DHT22;20414;50.860;4.382;2022-10-30T03:09:23;20.00;67.50
34137;DHT22;20414;50.860;4.382;2022-10-30T03:11:49;20.00;67.50
34137;DHT22;20414;50.860;4.382;2022-10-30T03:14:14;20.00;67.50
34137;DHT22;20414;50.860;4.382;2022-10-30T03:16:40;20.00;67.50
34137;DHT22;20414;50.860;4.382;2022-10-30T03:19:06;20.00;67.50
34137;DHT22;20414;50.860;4.382;2022-10-30T03:21:31;20.00;67.50
34137;DHT22;20414;50.860;4.382;2022-10-30T03:23:57;19.90;67.50
34137;DHT22;20414;50.860;4.382;2022-10-30T03:26:24;20.00;67.60
34137;DHT22;20414;50.860;4.382;2022-10-30T03:28:50;20.00;67.60
34137;DHT22;20414;50.860;4.382;2022-10-30T03:31:17;20.00;67.60
34137;DHT22;20414;50.860;4.382;2022-10-30T03:33:44;20.00;67.60
34137;DHT22;20414;50.860;4.382;2022-10-30T03:36:11;19.90;67.50
34137;DHT22;20414;50.860;4.382;2022-10-30T03:38:37;20.00;67.60
34137;DHT22;20414;50.860;4.382;2022-10-30T03:41:04;19.90;67.50
34137;DHT22;20414;50.860;4.382;2022-10-30T03:43:29;20.00;67.60
34137;DHT22;20414;50.860;4.382;2022-10-30T03:45:55;20.00;67.60
34137;DHT22;20414;50.860;4.382;2022-10-30T03:48:26;20.00;67.60
34137;DHT22;20414;50.860;4.382;2022-10-30T03:50:52;19.90;67.60
34137;DHT22;20414;50.860;4.382;2022-10-30T03:53:18;19.90;67.60
34137;DHT22;20414;50.860;4.382;2022-10-30T03:55:44;20.00;67.60
34137;DHT22;20414;50.860;4.382;2022-10-30T03:58:09;19.90;67.60
34137;DHT22;20414;50.860;4.382;2022-10-30T04:00:35;19.90;67.60
34137;DHT22;20414;50.860;4.382;2022-10-30T04:03:05;19.90;67.60
34137;DHT22;20414;50.860;4.382;2022-10-30T04:05:31;20.00;67.60
34137;DHT22;20414;50.860;4.382;2022-10-30T04:08:09;20.00;67.60
34137;DHT22;20414;50.860;4.382;2022-10-30T04:10:35;19.90;67.60
34137;DHT22;20414;50.860;4.382;2022-10-30T04:13:04;19.90;67.60
34137;DHT22;20414;50.860;4.382;2022-10-30T04:15:29;20.00;67.60
34137;DHT22;20414;50.860;4.382;2022-10-30T04:17:55;19.90;67.70
34137;DHT22;20414;50.860;4.382;2022-10-30T04:20:23;19.90;67.60
34137;DHT22;20414;50.860;4.382;2022-10-30T04:22:58;19.90;67.60
34137;DHT22;20414;50.860;4.382;2022-10-30T04:25:25;19.90;67.60
34137;DHT22;20414;50.860;4.382;2022-10-30T04:27:51;19.90;67.70
34137;DHT22;20414;50.860;4.382;2022-10-30T04:30:18;19.90;67.60
34137;DHT22;20414;50.860;4.382;2022-10-30T04:32:55;19.90;67.70
34137;DHT22;20414;50.860;4.382;2022-10-30T04:35:24;19.90;67.70
34137;DHT22;20414;50.860;4.382;2022-10-30T04:38:19;19.90;67.70
34137;DHT22;20414;50.860;4.382;2022-10-30T04:40:45;19.90;67.70
34137;DHT22;20414;50.860;4.382;2022-10-30T04:43:11;19.90;67.70
34137;DHT22;20414;50.860;4.382;2022-10-30T04:45:38;19.90;67.70
34137;DHT22;20414;50.860;4.382;2022-10-30T04:48:16;19.90;67.70
34137;DHT22;20414;50.860;4.382;2022-10-30T04:50:42;19.90;67.70
34137;DHT22;20414;50.860;4.382;2022-10-30T04:53:16;19.90;67.70
34137;DHT22;20414;50.860;4.382;2022-10-30T04:55:43;19.90;67.70
34137;DHT22;20414;50.860;4.382;2022-10-30T04:58:09;19.90;67.70
34137;DHT22;20414;50.860;4.382;2022-10-30T05:00:35;19.90;67.70
34137;DHT22;20414;50.860;4.382;2022-10-30T05:03:01;19.90;67.70
34137;DHT22;20414;50.860;4.382;2022-10-30T05:05:28;19.90;67.70
34137;DHT22;20414;50.860;4.382;2022-10-30T05:07:54;19.90;67.70
34137;DHT22;20414;50.860;4.382;2022-10-30T05:10:19;19.90;67.70
34137;DHT22;20414;50.860;4.382;2022-10-30T05:12:45;19.90;67.80
34137;DHT22;20414;50.860;4.382;2022-10-30T05:15:12;19.90;67.80
34137;DHT22;20414;50.860;4.382;2022-10-30T05:17:38;19.90;68.50
34137;DHT22;20414;50.860;4.382;2022-10-30T05:20:05;19.90;67.80
34137;DHT22;20414;50.860;4.382;2022-10-30T05:22:31;19.90;67.80
34137;DHT22;20414;50.860;4.382;2022-10-30T05:24:56;19.90;67.80
34137;DHT22;20414;50.860;4.382;2022-10-30T05:27:22;19.90;67.80
34137;DHT22;20414;50.860;4.382;2022-10-30T05:29:48;19.90;67.80
34137;DHT22;20414;50.860;4.382;2022-10-30T05:32:13;19.90;67.90
34137;DHT22;20414;50.860;4.382;2022-10-30T05:34:41;19.90;67.80
34137;DHT22;20414;50.860;4.382;2022-10-30T05:37:08;19.90;67.80
34137;DHT22;20414;50.860;4.382;2022-10-30T05:39:34;19.90;67.80
34137;DHT22;20414;50.860;4.382;2022-10-30T05:41:59;19.90;67.80
34137;DHT22;20414;50.860;4.382;2022-10-30T05:44:25;19.90;67.90
34137;DHT22;20414;50.860;4.382;2022-10-30T05:46:50;19.90;67.90
34137;DHT22;20414;50.860;4.382;2022-10-30T05:49:16;19.90;67.80
34137;DHT22;20414;50.860;4.382;2022-10-30T05:51:42;19.90;67.90
34137;DHT22;20414;50.860;4.382;2022-10-30T05:54:08;19.90;67.90
34137;DHT22;20414;50.860;4.382;2022-10-30T05:56:33;19.90;67.90
34137;DHT22;20414;50.860;4.382;2022-10-30T05:58:59;19.80;67.90
34137;DHT22;20414;50.860;4.382;2022-10-30T06:01:25;19.90;67.90
34137;DHT22;20414;50.860;4.382;2022-10-30T06:03:50;19.90;67.90
34137;DHT22;20414;50.860;4.382;2022-10-30T06:06:16;19.90;67.90
34137;DHT22;20414;50.860;4.382;2022-10-30T06:08:42;19.90;67.90
34137;DHT22;20414;50.860;4.382;2022-10-30T06:11:07;19.80;67.90
34137;DHT22;20414;50.860;4.382;2022-10-30T06:13:33;19.80;67.90
34137;DHT22;20414;50.860;4.382;2022-10-30T06:15:58;19.90;67.90
34137;DHT22;20414;50.860;4.382;2022-10-30T06:18:24;19.80;67.90
34137;DHT22;20414;50.860;4.382;2022-10-30T06:20:50;19.90;68.00
34137;DHT22;20414;50.860;4.382;2022-10-30T06:23:16;19.90;68.00
34137;DHT22;20414;50.860;4.382;2022-10-30T06:25:41;19.90;68.00
34137;DHT22;20414;50.860;4.382;2022-10-30T06:28:09;19.90;68.00
34137;DHT22;20414;50.860;4.382;2022-10-30T06:30:35;19.90;68.00
34137;DHT22;20414;50.860;4.382;2022-10-30T06:33:04;19.80;67.90
34137;DHT22;20414;50.860;4.382;2022-10-30T06:35:30;19.80;68.00
34137;DHT22;20414;50.860;4.382;2022-10-30T06:37:56;19.90;68.00
34137;DHT22;20414;50.860;4.382;2022-10-30T06:40:24;19.80;67.90
34137;DHT22;20414;50.860;4.382;2022-10-30T06:42:52;19.80;68.00
34137;DHT22;20414;50.860;4.382;2022-10-30T06:45:19;19.90;68.00
34137;DHT22;20414;50.860;4.382;2022-10-30T06:47:45;19.80;68.00
34137;DHT22;20414;50.860;4.382;2022-10-30T06:50:13;19.80;68.00
34137;DHT22;20414;50.860;4.382;2022-10-30T06:52:39;19.80;68.00
34137;DHT22;20414;50.860;4.382;2022-10-30T06:55:06;19.80;68.00
34137;DHT22;20414;50.860;4.382;2022-10-30T06:57:32;19.80;68.00
34137;DHT22;20414;50.860;4.382;2022-10-30T06:59:57;19.80;68.00
34137;DHT22;20414;50.860;4.382;2022-10-30T07:02:23;19.80;68.00
34137;DHT22;20414;50.860;4.382;2022-10-30T07:04:49;19.80;68.00
34137;DHT22;20414;50.860;4.382;2022-10-30T07:07:15;19.80;68.00
34137;DHT22;20414;50.860;4.382;2022-10-30T07:09:41;19.80;68.10
34137;DHT22;20414;50.860;4.382;2022-10-30T07:12:07;19.80;68.00
34137;DHT22;20414;50.860;4.382;2022-10-30T07:14:33;19.80;68.00
34137;DHT22;20414;50.860;4.382;2022-10-30T07:16:59;19.80;68.00
34137;DHT22;20414;50.860;4.382;2022-10-30T07:19:25;19.80;68.00
34137;DHT22;20414;50.860;4.382;2022-10-30T07:21:50;19.80;68.00
34137;DHT22;20414;50.860;4.382;2022-10-30T07:24:16;19.80;68.00
34137;DHT22;20414;50.860;4.382;2022-10-30T07:26:42;19.80;68.00
34137;DHT22;20414;50.860;4.382;2022-10-30T07:29:08;19.80;68.00
34137;DHT22;20414;50.860;4.382;2022-10-30T07:31:34;19.80;68.00
34137;DHT22;20414;50.860;4.382;2022-10-30T07:33:59;19.80;68.10
34137;DHT22;20414;50.860;4.382;2022-10-30T07:36:25;19.80;68.00
34137;DHT22;20414;50.860;4.382;2022-10-30T07:38:54;19.80;68.00
34137;DHT22;20414;50.860;4.382;2022-10-30T07:41:19;19.80;68.00
34137;DHT22;20414;50.860;4.382;2022-10-30T07:43:46;19.80;68.10
34137;DHT22;20414;50.860;4.382;2022-10-30T07:46:12;19.80;68.00
34137;DHT22;20414;50.860;4.382;2022-10-30T07:48:38;19.80;68.00
34137;DHT22;20414;50.860;4.382;2022-10-30T07:51:04;19.80;68.00
34137;DHT22;20414;50.860;4.382;2022-10-30T07:53:30;19.80;68.00
34137;DHT22;20414;50.860;4.382;2022-10-30T07:55:56;19.80;68.00
34137;DHT22;20414;50.860;4.382;2022-10-30T07:58:21;19.80;68.00
34137;DHT22;20414;50.860;4.382;2022-10-30T08:00:47;19.80;68.00
34137;DHT22;20414;50.860;4.382;2022-10-30T08:03:13;19.80;68.00
34137;DHT22;20414;50.860;4.382;2022-10-30T08:05:39;19.80;68.00
34137;DHT22;20414;50.860;4.382;2022-10-30T08:08:05;19.80;68.00
34137;DHT22;20414;50.860;4.382;2022-10-30T08:10:31;19.80;68.00
34137;DHT22;20414;50.860;4.382;2022-10-30T08:12:56;19.80;68.00
34137;DHT22;20414;50.860;4.382;2022-10-30T08:15:22;19.80;68.10
34137;DHT22;20414;50.860;4.382;2022-10-30T08:17:48;19.80;68.00
34137;DHT22;20414;50.860;4.382;2022-10-30T08:20:17;19.80;68.10
34137;DHT22;20414;50.860;4.382;2022-10-30T08:22:47;19.80;68.00
34137;DHT22;20414;50.860;4.382;2022-10-30T08:25:15;19.80;68.10
34137;DHT22;20414;50.860;4.382;2022-10-30T08:30:20;19.80;68.10
34137;DHT22;20414;50.860;4.382;2022-10-30T08:32:46;19.80;68.10
34137;DHT22;20414;50.860;4.382;2022-10-30T08:35:11;19.80;68.20
34137;DHT22;20414;50.860;4.382;2022-10-30T08:37:37;19.80;68.10
34137;DHT22;20414;50.860;4.382;2022-10-30T08:40:03;19.80;68.10
34137;DHT22;20414;50.860;4.382;2022-10-30T08:42:29;19.80;68.10
34137;DHT22;20414;50.860;4.382;2022-10-30T08:44:55;19.80;68.10
34137;DHT22;20414;50.860;4.382;2022-10-30T08:47:20;19.80;68.10
34137;DHT22;20414;50.860;4.382;2022-10-30T08:49:46;19.80;68.10
34137;DHT22;20414;50.860;4.382;2022-10-30T08:52:11;19.80;68.10
34137;DHT22;20414;50.860;4.382;2022-10-30T08:54:37;19.80;68.10
34137;DHT22;20414;50.860;4.382;2022-10-30T08:57:03;19.80;68.10
34137;DHT22;20414;50.860;4.382;2022-10-30T08:59:29;19.80;68.10
34137;DHT22;20414;50.860;4.382;2022-10-30T09:01:54;19.80;68.10
34137;DHT22;20414;50.860;4.382;2022-10-30T09:04:20;19.80;68.10
34137;DHT22;20414;50.860;4.382;2022-10-30T09:06:46;19.80;68.20
34137;DHT22;20414;50.860;4.382;2022-10-30T09:09:11;19.80;68.20
34137;DHT22;20414;50.860;4.382;2022-10-30T09:11:39;19.80;68.20
34137;DHT22;20414;50.860;4.382;2022-10-30T09:14:04;19.80;68.10
34137;DHT22;20414;50.860;4.382;2022-10-30T09:16:30;19.80;68.20
34137;DHT22;20414;50.860;4.382;2022-10-30T09:18:56;19.80;68.20
34137;DHT22;20414;50.860;4.382;2022-10-30T09:21:21;19.80;68.20
34137;DHT22;20414;50.860;4.382;2022-10-30T09:23:47;19.80;68.10
34137;DHT22;20414;50.860;4.382;2022-10-30T09:26:13;19.80;68.20
34137;DHT22;20414;50.860;4.382;2022-10-30T09:28:38;19.80;68.20
34137;DHT22;20414;50.860;4.382;2022-10-30T09:31:04;19.80;68.20
34137;DHT22;20414;50.860;4.382;2022-10-30T09:33:30;19.80;68.10
34137;DHT22;20414;50.860;4.382;2022-10-30T09:35:55;19.80;68.20
34137;DHT22;20414;50.860;4.382;2022-10-30T09:38:21;19.80;68.10
34137;DHT22;20414;50.860;4.382;2022-10-30T10:05:42;19.90;68.20
34137;DHT22;20414;50.860;4.382;2022-10-30T10:08:18;19.90;68.20
34137;DHT22;20414;50.860;4.382;2022-10-30T10:10:50;19.80;68.20
34137;DHT22;20414;50.860;4.382;2022-10-30T10:13:37;19.80;68.20
34137;DHT22;20414;50.860;4.382;2022-10-30T10:16:18;19.80;68.20
34137;DHT22;20414;50.860;4.382;2022-10-30T10:19:17;19.80;68.20
34137;DHT22;20414;50.860;4.382;2022-10-30T10:21:50;19.90;68.20
34137;DHT22;20414;50.860;4.382;2022-10-30T10:24:26;19.90;68.20
34137;DHT22;20414;50.860;4.382;2022-10-30T10:27:09;19.80;68.10
34137;DHT22;20414;50.860;4.382;2022-10-30T10:37:41;19.90;68.30
34137;DHT22;20414;50.860;4.382;2022-10-30T10:43:17;19.90;68.30
34137;DHT22;20414;50.860;4.382;2022-10-30T10:51:28;19.80;68.20
34137;DHT22;20414;50.860;4.382;2022-10-30T10:54:20;19.90;68.30
34137;DHT22;20414;50.860;4.382;2022-10-30T10:56:45;19.80;68.30
34137;DHT22;20414;50.860;4.382;2022-10-30T11:00:04;19.80;68.30
34137;DHT22;20414;50.860;4.382;2022-10-30T11:04:41;19.80;68.30
34137;DHT22;20414;50.860;4.382;2022-10-30T11:07:32;19.80;68.30
34137;DHT22;20414;50.860;4.382;2022-10-30T11:09:58;19.80;68.30
34137;DHT22;20414;50.860;4.382;2022-10-30T11:12:42;19.90;68.40
34137;DHT22;20414;50.860;4.382;2022-10-30T11:15:22;19.90;68.40
34137;DHT22;20414;50.860;4.382;2022-10-30T11:23:41;19.80;68.30
34137;DHT22;20414;50.860;4.382;2022-10-30T11:26:29;19.80;68.30
34137;DHT22;20414;50.860;4.382;2022-10-30T11:31:34;19.90;68.30
34137;DHT22;20414;50.860;4.382;2022-10-30T11:36:47;19.90;68.30
34137;DHT22;20414;50.860;4.382;2022-10-30T11:42:12;19.90;68.20
34137;DHT22;20414;50.860;4.382;2022-10-30T11:44:49;19.90;68.30
34137;DHT22;20414;50.860;4.382;2022-10-30T11:47:18;19.90;68.20
34137;DHT22;20414;50.860;4.382;2022-10-30T11:49:59;19.90;68.30
34137;DHT22;20414;50.860;4.382;2022-10-30T11:52:26;19.90;68.30
34137;DHT22;20414;50.860;4.382;2022-10-30T11:54:55;19.90;68.30
34137;DHT22;20414;50.860;4.382;2022-10-30T11:57:36;19.90;68.30
34137;DHT22;20414;50.860;4.382;2022-10-30T12:00:13;19.80;68.20
34137;DHT22;20414;50.860;4.382;2022-10-30T12:02:41;19.90;68.30
34137;DHT22;20414;50.860;4.382;2022-10-30T12:08:15;19.90;68.30
34137;DHT22;20414;50.860;4.382;2022-10-30T12:10:54;19.90;68.20
34137;DHT22;20414;50.860;4.382;2022-10-30T12:13:22;19.90;68.60
34137;DHT22;20414;50.860;4.382;2022-10-30T12:15:50;19.90;68.20
34137;DHT22;20414;50.860;4.382;2022-10-30T12:18:28;19.90;68.20
34137;DHT22;20414;50.860;4.382;2022-10-30T12:20:56;19.90;68.20
34137;DHT22;20414;50.860;4.382;2022-10-30T12:23:26;19.90;68.90
34137;DHT22;20414;50.860;4.382;2022-10-30T12:25:54;19.90;68.20
34137;DHT22;20414;50.860;4.382;2022-10-30T12:28:29;19.90;68.20
34137;DHT22;20414;50.860;4.382;2022-10-30T12:36:23;19.90;68.30
34137;DHT22;20414;50.860;4.382;2022-10-30T12:39:04;19.90;68.20
34137;DHT22;20414;50.860;4.382;2022-10-30T12:44:40;19.90;68.30
34137;DHT22;20414;50.860;4.382;2022-10-30T12:49:41;20.00;68.30
34137;DHT22;20414;50.860;4.382;2022-10-30T12:52:22;19.90;68.20
34137;DHT22;20414;50.860;4.382;2022-10-30T12:55:32;19.90;68.20
34137;DHT22;20414;50.860;4.382;2022-10-30T12:58:14;19.90;68.20
34137;DHT22;20414;50.860;4.382;2022-10-30T13:01:01;19.90;68.20
34137;DHT22;20414;50.860;4.382;2022-10-30T13:03:40;19.90;68.20
34137;DHT22;20414;50.860;4.382;2022-10-30T13:06:12;19.90;68.20
34137;DHT22;20414;50.860;4.382;2022-10-30T13:11:17;19.90;68.20
34137;DHT22;20414;50.860;4.382;2022-10-30T13:13:51;19.90;68.60
34137;DHT22;20414;50.860;4.382;2022-10-30T13:16:22;19.90;68.20
34137;DHT22;20414;50.860;4.382;2022-10-30T13:18:54;19.90;68.20
34137;DHT22;20414;50.860;4.382;2022-10-30T13:21:25;19.90;68.20
34137;DHT22;20414;50.860;4.382;2022-10-30T13:23:58;19.90;68.90
34137;DHT22;20414;50.860;4.382;2022-10-30T13:26:35;19.90;68.20
34137;DHT22;20414;50.860;4.382;2022-10-30T13:31:48;19.90;68.10
34137;DHT22;20414;50.860;4.382;2022-10-30T13:37:29;19.90;68.10
34137;DHT22;20414;50.860;4.382;2022-10-30T13:56:28;19.90;68.00
34137;DHT22;20414;50.860;4.382;2022-10-30T14:01:41;19.90;68.00
34137;DHT22;20414;50.860;4.382;2022-10-30T14:04:19;19.90;68.00
34137;DHT22;20414;50.860;4.382;2022-10-30T14:07:09;20.00;68.10
34137;DHT22;20414;50.860;4.382;2022-10-30T14:18:26;20.00;68.00
34137;DHT22;20414;50.860;4.382;2022-10-30T14:20:53;19.90;68.70
34137;DHT22;20414;50.860;4.382;2022-10-30T14:23:26;20.00;68.10
34137;DHT22;20414;50.860;4.382;2022-10-30T14:28:38;19.90;68.00
34137;DHT22;20414;50.860;4.382;2022-10-30T14:31:15;20.00;68.00
34137;DHT22;20414;50.860;4.382;2022-10-30T14:33:51;20.00;68.10
34137;DHT22;20414;50.860;4.382;2022-10-30T14:44:33;20.00;68.70
34137;DHT22;20414;50.860;4.382;2022-10-30T14:46:40;20.00;68.00
34137;DHT22;20414;50.860;4.382;2022-10-30T14:49:27;20.00;68.00
34137;DHT22;20414;50.860;4.382;2022-10-30T14:58:33;20.00;68.00
34137;DHT22;20414;50.860;4.382;2022-10-30T15:00:40;20.00;68.00
34137;DHT22;20414;50.860;4.382;2022-10-30T15:06:03;20.00;68.00
34137;DHT22;20414;50.860;4.382;2022-10-30T15:08:37;20.00;68.00
34137;DHT22;20414;50.860;4.382;2022-10-30T15:14:03;20.00;68.00
34137;DHT22;20414;50.860;4.382;2022-10-30T15:16:29;20.00;68.00
34137;DHT22;20414;50.860;4.382;2022-10-30T15:19:03;20.00;68.00
34137;DHT22;20414;50.860;4.382;2022-10-30T15:21:30;20.00;68.00
34137;DHT22;20414;50.860;4.382;2022-10-30T15:23:59;20.00;68.00
34137;DHT22;20414;50.860;4.382;2022-10-30T15:26:34;20.00;68.00
34137;DHT22;20414;50.860;4.382;2022-10-30T15:29:01;20.00;68.00
34137;DHT22;20414;50.860;4.382;2022-10-30T15:31:28;20.00;68.00
34137;DHT22;20414;50.860;4.382;2022-10-30T15:33:54;20.00;68.00
34137;DHT22;20414;50.860;4.382;2022-10-30T15:36:34;20.00;68.00
34137;DHT22;20414;50.860;4.382;2022-10-30T15:39:12;20.00;68.70
34137;DHT22;20414;50.860;4.382;2022-10-30T15:42:00;20.00;68.00
34137;DHT22;20414;50.860;4.382;2022-10-30T15:44:29;20.00;68.00
34137;DHT22;20414;50.860;4.382;2022-10-30T15:46:58;20.00;68.00
34137;DHT22;20414;50.860;4.382;2022-10-30T15:49:37;20.00;68.00
34137;DHT22;20414;50.860;4.382;2022-10-30T15:52:25;20.00;68.00
34137;DHT22;20414;50.860;4.382;2022-10-30T15:54:57;20.00;68.00
34137;DHT22;20414;50.860;4.382;2022-10-30T15:57:42;20.00;68.00
34137;DHT22;20414;50.860;4.382;2022-10-30T16:00:29;20.00;68.00
34137;DHT22;20414;50.860;4.382;2022-10-30T16:05:29;20.00;68.00
34137;DHT22;20414;50.860;4.382;2022-10-30T16:07:56;20.00;68.00
34137;DHT22;20414;50.860;4.382;2022-10-30T16:10:25;20.00;68.00
34137;DHT22;20414;50.860;4.382;2022-10-30T16:12:51;20.00;68.00
34137;DHT22;20414;50.860;4.382;2022-10-30T16:15:34;20.00;68.00
34137;DHT22;20414;50.860;4.382;2022-10-30T16:20:47;20.00;68.00
34137;DHT22;20414;50.860;4.382;2022-10-30T16:23:16;20.00;68.00
34137;DHT22;20414;50.860;4.382;2022-10-30T16:25:42;19.90;67.90
34137;DHT22;20414;50.860;4.382;2022-10-30T16:30:51;20.00;68.00
34137;DHT22;20414;50.860;4.382;2022-10-30T16:33:21;20.00;68.00
34137;DHT22;20414;50.860;4.382;2022-10-30T16:35:50;20.00;68.00
34137;DHT22;20414;50.860;4.382;2022-10-30T16:38:17;20.00;68.00
34137;DHT22;20414;50.860;4.382;2022-10-30T16:40:44;20.00;68.00
34137;DHT22;20414;50.860;4.382;2022-10-30T16:43:28;20.00;68.10
34137;DHT22;20414;50.860;4.382;2022-10-30T16:45:55;20.00;68.00
34137;DHT22;20414;50.860;4.382;2022-10-30T16:48:33;20.00;68.00
34137;DHT22;20414;50.860;4.382;2022-10-30T16:51:00;20.00;68.10
34137;DHT22;20414;50.860;4.382;2022-10-30T16:53:27;19.90;68.00
34137;DHT22;20414;50.860;4.382;2022-10-30T16:55:55;20.00;68.10
34137;DHT22;20414;50.860;4.382;2022-10-30T16:58:23;20.00;68.00
34137;DHT22;20414;50.860;4.382;2022-10-30T17:00:52;20.00;68.00
34137;DHT22;20414;50.860;4.382;2022-10-30T17:03:20;20.00;68.00
34137;DHT22;20414;50.860;4.382;2022-10-30T17:06:01;20.00;68.10
34137;DHT22;20414;50.860;4.382;2022-10-30T17:08:40;20.00;68.10
34137;DHT22;20414;50.860;4.382;2022-10-30T17:11:15;20.00;68.10
34137;DHT22;20414;50.860;4.382;2022-10-30T17:16:31;20.00;68.00
34137;DHT22;20414;50.860;4.382;2022-10-30T17:18:59;20.00;68.10
34137;DHT22;20414;50.860;4.382;2022-10-30T17:21:39;20.00;68.80
34137;DHT22;20414;50.860;4.382;2022-10-30T17:24:17;20.00;68.10
34137;DHT22;20414;50.860;4.382;2022-10-30T17:26:56;20.00;68.10
34137;DHT22;20414;50.860;4.382;2022-10-30T17:32:21;20.00;68.10
34137;DHT22;20414;50.860;4.382;2022-10-30T17:34:51;20.00;68.10
34137;DHT22;20414;50.860;4.382;2022-10-30T17:37:18;20.00;68.10
34137;DHT22;20414;50.860;4.382;2022-10-30T17:39:44;20.00;68.20
34137;DHT22;20414;50.860;4.382;2022-10-30T17:42:10;19.90;68.10
34137;DHT22;20414;50.860;4.382;2022-10-30T17:44:36;20.00;68.10
34137;DHT22;20414;50.860;4.382;2022-10-30T17:47:15;20.00;68.10
34137;DHT22;20414;50.860;4.382;2022-10-30T17:49:40;19.90;68.10
34137;DHT22;20414;50.860;4.382;2022-10-30T17:52:10;19.90;68.10
34137;DHT22;20414;50.860;4.382;2022-10-30T17:54:36;20.00;68.20
34137;DHT22;20414;50.860;4.382;2022-10-30T17:57:02;20.00;68.20
34137;DHT22;20414;50.860;4.382;2022-10-30T17:59:27;19.90;68.10
34137;DHT22;20414;50.860;4.382;2022-10-30T18:01:54;20.00;68.20
34137;DHT22;20414;50.860;4.382;2022-10-30T18:04:19;20.00;68.20
34137;DHT22;20414;50.860;4.382;2022-10-30T18:06:45;20.00;68.20
34137;DHT22;20414;50.860;4.382;2022-10-30T18:09:11;20.00;68.20
34137;DHT22;20414;50.860;4.382;2022-10-30T18:11:37;19.90;68.20
34137;DHT22;20414;50.860;4.382;2022-10-30T18:14:03;20.00;68.20
34137;DHT22;20414;50.860;4.382;2022-10-30T18:16:30;20.00;68.20
34137;DHT22;20414;50.860;4.382;2022-10-30T18:18:55;20.00;68.20
34137;DHT22;20414;50.860;4.382;2022-10-30T18:21:23;19.90;68.10
34137;DHT22;20414;50.860;4.382;2022-10-30T18:23:52;19.90;68.10
34137;DHT22;20414;50.860;4.382;2022-10-30T18:26:20;20.00;68.20
34137;DHT22;20414;50.860;4.382;2022-10-30T18:28:46;20.00;68.20
34137;DHT22;20414;50.860;4.382;2022-10-30T18:31:14;20.00;68.30
34137;DHT22;20414;50.860;4.382;2022-10-30T18:33:41;20.00;68.30